createdAt,value
2019-01-24T00:00:43.937Z,29.90
2019-01-24T00:03:24.839Z,29.60
2019-01-24T00:06:06.420Z,29.23
2019-01-24T00:12:09.491Z,26.15
2019-01-24T00:15:11.583Z,26.42
2019-01-24T00:17:52.415Z,29.27
2019-01-24T00:20:24.091Z,25.15
2019-01-24T00:23:12.977Z,26.60
2019-01-24T00:26:13.345Z,28.55
2019-01-24T00:35:13.928Z,27.48
2019-01-24T00:38:03.609Z,26.12
2019-01-24T00:40:44.706Z,26.15
2019-01-24T00:43:14.867Z,26.23
2019-01-24T00:49:25.242Z,23.35
2019-01-24T00:52:34.240Z,26.42
2019-01-24T00:55:15.123Z,25.50
2019-01-24T00:58:24.748Z,24.20
2019-01-24T01:01:13.808Z,26.20
2019-01-24T01:03:44.415Z,26.48
2019-01-24T01:09:24.329Z,28.10
2019-01-24T01:14:55.016Z,27.22
2019-01-24T01:17:36.751Z,28.27
2019-01-24T01:20:25.829Z,26.12
2019-01-24T01:23:14.910Z,29.70
2019-01-24T01:25:55.878Z,29.40
2019-01-24T01:28:36.912Z,27.67
2019-01-24T01:31:46.075Z,28.30
2019-01-24T01:38:04.439Z,25.65
2019-01-24T01:40:53.411Z,26.05
2019-01-24T01:47:05.117Z,27.17
2019-01-24T01:49:48.653Z,25.30
2019-01-24T01:52:29.428Z,26.15
2019-01-24T01:58:13.796Z,26.25
2019-01-24T02:10:18.569Z,29.35
2019-01-24T02:13:20.729Z,26.00
2019-01-24T02:16:02.677Z,25.23
2019-01-24T02:18:43.755Z,26.60
2019-01-24T02:21:52.873Z,26.45
2019-01-24T02:27:58.353Z,25.68
2019-01-24T02:30:39.199Z,24.20
2019-01-24T02:36:39.733Z,25.92
2019-01-24T02:42:39.094Z,26.02
2019-01-24T02:45:22.122Z,26.02
2019-01-24T02:48:03.873Z,26.45
2019-01-24T02:50:44.640Z,27.25
2019-01-24T02:56:36.061Z,26.10
2019-01-24T02:59:16.427Z,26.50
2019-01-24T03:02:05.652Z,27.20
2019-01-24T03:04:35.881Z,29.60
2019-01-24T03:07:45.177Z,25.97
2019-01-24T03:16:52.711Z,26.23
2019-01-24T03:19:34.217Z,27.42
2019-01-24T03:22:04.249Z,27.22
2019-01-24T03:25:13.144Z,27.15
2019-01-24T03:28:13.309Z,23.52
2019-01-24T03:30:55.042Z,26.12
2019-01-24T03:36:38.094Z,25.17
2019-01-24T03:39:48.514Z,24.15
2019-01-24T03:45:27.887Z,24.07
2019-01-24T03:48:16.820Z,25.55
2019-01-24T03:53:48.829Z,23.40
2019-01-24T03:59:46.190Z,23.30
2019-01-24T04:02:19.929Z,21.45
2019-01-24T04:04:50.022Z,21.97
2019-01-24T04:07:20.263Z,21.52
2019-01-24T04:09:50.353Z,23.35
2019-01-24T04:12:20.506Z,22.32
2019-01-24T04:14:50.302Z,24.70
2019-01-24T04:17:20.318Z,22.30
2019-01-24T04:23:32.006Z,22.10
2019-01-24T04:29:22.924Z,22.73
2019-01-24T04:32:04.315Z,21.52
2019-01-24T04:34:54.903Z,21.65
2019-01-24T04:37:43.806Z,22.50
2019-01-24T04:40:15.856Z,23.38
2019-01-24T04:43:07.460Z,23.45
2019-01-24T04:45:38.066Z,23.95
2019-01-24T04:51:51.280Z,21.02
2019-01-24T04:54:21.604Z,23.90
2019-01-24T04:57:11.438Z,22.20
2019-01-24T05:00:01.605Z,21.75
2019-01-24T05:02:44.630Z,23.27
2019-01-24T05:05:14.909Z,22.27
2019-01-24T05:13:53.243Z,22.60
2019-01-24T05:19:28.311Z,22.30
2019-01-24T05:22:11.600Z,24.57
2019-01-24T05:25:20.713Z,22.52
2019-01-24T05:30:54.169Z,22.35
2019-01-24T05:33:24.432Z,23.77
2019-01-24T05:36:13.261Z,23.30
2019-01-24T05:38:43.160Z,22.13
2019-01-24T05:41:36.611Z,21.10
2019-01-24T05:44:07.528Z,23.20
2019-01-24T05:46:57.178Z,21.65
2019-01-24T05:49:28.786Z,21.57
2019-01-24T05:52:00.806Z,22.20
2019-01-24T06:01:13.121Z,22.70
2019-01-24T06:04:13.828Z,23.98
2019-01-24T06:06:58.239Z,24.05
2019-01-24T06:09:40.910Z,23.25
2019-01-24T06:12:22.149Z,23.75
2019-01-24T06:15:31.434Z,24.35
2019-01-24T06:18:20.763Z,22.35
2019-01-24T06:24:33.502Z,22.60
2019-01-24T06:30:31.660Z,22.10
2019-01-24T06:33:01.830Z,23.18
2019-01-24T06:35:31.910Z,23.57
2019-01-24T06:38:02.244Z,26.45
2019-01-24T06:40:32.242Z,26.37
2019-01-24T06:43:02.121Z,29.42
2019-01-24T06:45:33.784Z,30.62
2019-01-24T06:48:03.959Z,36.80
2019-01-24T06:50:35.869Z,33.67
2019-01-24T06:53:09.136Z,27.17
2019-01-24T06:55:42.227Z,27.30
2019-01-24T06:58:13.286Z,25.12
2019-01-24T07:00:44.488Z,24.72
2019-01-24T07:03:16.476Z,24.57
2019-01-24T07:09:10.361Z,25.45
2019-01-24T07:11:40.717Z,26.20
2019-01-24T07:14:10.736Z,26.60
2019-01-24T07:16:40.513Z,26.65
2019-01-24T07:19:13.194Z,49.33
2019-01-24T07:21:43.505Z,34.15
2019-01-24T07:24:13.960Z,34.43
2019-01-24T07:26:45.122Z,26.42
2019-01-24T07:29:15.352Z,29.87
2019-01-24T07:31:46.823Z,26.73
2019-01-24T07:43:40.097Z,29.05
2019-01-24T07:52:19.543Z,35.43
2019-01-24T07:58:05.920Z,31.25
2019-01-24T08:00:37.345Z,26.10
2019-01-24T08:06:20.621Z,33.80
2019-01-24T08:08:51.116Z,35.92
2019-01-24T08:11:23.405Z,24.85
2019-01-24T08:14:32.312Z,38.28
2019-01-24T08:23:44.388Z,37.55
2019-01-24T08:28:59.411Z,27.32
2019-01-24T08:31:40.977Z,28.67
2019-01-24T08:34:21.889Z,25.23
2019-01-24T08:37:11.035Z,24.60
2019-01-24T08:39:43.834Z,24.57
2019-01-24T08:42:13.972Z,30.95
2019-01-24T08:44:45.080Z,28.17
2019-01-24T08:47:15.397Z,28.80
2019-01-24T08:49:45.256Z,29.23
2019-01-24T08:52:15.652Z,36.15
2019-01-24T08:54:45.867Z,46.35
2019-01-24T08:57:15.919Z,35.25
2019-01-24T08:59:46.080Z,31.60
2019-01-24T09:02:17.417Z,33.53
2019-01-24T09:04:47.347Z,35.78
2019-01-24T09:07:18.202Z,29.72
2019-01-24T09:09:53.782Z,30.60
2019-01-24T09:12:30.063Z,29.82
2019-01-24T09:14:56.224Z,32.73
2019-01-24T09:17:30.620Z,28.23
2019-01-24T09:20:02.202Z,25.88
2019-01-24T09:22:32.210Z,28.02
2019-01-24T09:25:06.733Z,25.20
2019-01-24T09:27:37.088Z,29.32
2019-01-24T09:30:10.374Z,26.55
2019-01-24T09:32:40.825Z,31.42
2019-01-24T09:35:11.600Z,35.03
2019-01-24T09:37:41.977Z,31.77
2019-01-24T09:40:13.047Z,31.02
2019-01-24T09:42:43.660Z,29.70
2019-01-24T09:45:19.777Z,28.92
2019-01-24T09:47:50.216Z,29.00
2019-01-24T09:50:22.271Z,28.27
2019-01-24T09:52:52.362Z,28.62
2019-01-24T09:58:57.093Z,26.93
2019-01-24T10:04:49.310Z,26.48
2019-01-24T10:10:29.394Z,29.42
2019-01-24T10:16:19.814Z,26.30
2019-01-24T10:19:29.796Z,28.52
2019-01-24T10:22:19.027Z,27.82
2019-01-24T10:25:20.124Z,34.55
2019-01-24T10:28:01.728Z,29.50
2019-01-24T10:30:43.422Z,29.37
2019-01-24T10:36:17.588Z,33.75
2019-01-24T10:38:59.139Z,41.33
2019-01-24T10:41:42.387Z,30.97
2019-01-24T10:44:23.907Z,28.02
2019-01-24T10:47:05.403Z,27.82
2019-01-24T10:49:47.096Z,28.45
2019-01-24T10:52:29.321Z,28.65
2019-01-24T10:55:13.684Z,30.85
2019-01-24T11:01:24.048Z,44.45
2019-01-24T11:04:33.300Z,34.40
2019-01-24T11:07:23.115Z,34.27
2019-01-24T11:16:07.682Z,26.25
2019-01-24T11:18:49.533Z,25.90
2019-01-24T11:21:49.483Z,27.98
2019-01-24T11:24:29.742Z,28.25
2019-01-24T11:27:18.963Z,25.20
2019-01-24T11:29:49.978Z,27.65
2019-01-24T11:32:21.403Z,25.30
2019-01-24T11:35:30.469Z,26.65
2019-01-24T11:38:19.575Z,26.10
2019-01-24T11:44:18.994Z,26.20
2019-01-24T11:47:27.966Z,29.05
2019-01-24T11:50:27.788Z,27.35
2019-01-24T11:53:28.594Z,27.70
2019-01-24T11:56:11.980Z,26.95
2019-01-24T11:58:42.160Z,29.75
2019-01-24T12:04:26.411Z,26.48
2019-01-24T12:10:20.650Z,27.73
2019-01-24T12:13:09.988Z,28.70
2019-01-24T12:16:19.306Z,28.15
2019-01-24T12:22:00.213Z,29.15
2019-01-24T12:24:41.053Z,29.20
2019-01-24T12:27:11.365Z,28.30
2019-01-24T12:29:42.161Z,28.57
2019-01-24T12:32:12.049Z,31.02
2019-01-24T12:35:02.769Z,29.02
2019-01-24T12:37:44.367Z,27.80
2019-01-24T12:43:36.024Z,28.12
2019-01-24T12:46:25.319Z,27.90
2019-01-24T12:49:06.468Z,26.93
2019-01-24T12:52:14.263Z,27.07
2019-01-24T12:57:55.429Z,26.87
2019-01-24T13:00:36.601Z,27.65
2019-01-24T13:03:26.257Z,27.60
2019-01-24T13:05:57.723Z,30.95
2019-01-24T13:08:32.977Z,31.20
2019-01-24T13:11:06.982Z,40.15
2019-01-24T13:13:40.115Z,34.20
2019-01-24T13:16:10.589Z,29.48
2019-01-24T13:18:41.558Z,32.75
2019-01-24T13:21:11.724Z,31.42
2019-01-24T13:23:41.805Z,31.35
2019-01-24T13:26:14.778Z,30.52
2019-01-24T13:28:46.647Z,29.90
2019-01-24T13:31:17.258Z,31.82
2019-01-24T13:33:47.538Z,28.42
2019-01-24T13:36:20.045Z,29.57
2019-01-24T13:38:50.445Z,29.70
2019-01-24T13:41:20.919Z,28.83
2019-01-24T13:43:51.158Z,30.82
2019-01-24T13:46:21.837Z,31.50
2019-01-24T13:48:53.517Z,31.02
2019-01-24T13:51:24.434Z,29.42
2019-01-24T13:53:54.631Z,27.15
2019-01-24T13:59:39.328Z,37.50
2019-01-24T14:02:39.850Z,38.83
2019-01-24T14:05:41.538Z,41.28
2019-01-24T14:08:23.146Z,32.58
2019-01-24T14:11:07.529Z,35.80
2019-01-24T14:13:48.622Z,30.55
2019-01-24T14:20:00.697Z,29.40
2019-01-24T14:22:33.570Z,32.48
2019-01-24T14:25:05.206Z,33.10
2019-01-24T14:27:38.136Z,32.53
2019-01-24T14:36:30.142Z,30.40
2019-01-24T14:42:16.175Z,29.45
2019-01-24T14:48:34.394Z,30.35
2019-01-24T14:51:10.920Z,29.60
2019-01-24T14:53:41.263Z,30.12
2019-01-24T14:56:17.927Z,30.23
2019-01-24T14:58:51.013Z,29.65
2019-01-24T15:01:25.255Z,30.77
2019-01-24T15:04:14.139Z,30.50
2019-01-24T15:10:05.531Z,29.90
2019-01-24T15:12:46.905Z,31.40
2019-01-24T15:18:29.815Z,29.55
2019-01-24T15:21:12.214Z,31.60
2019-01-24T15:23:54.017Z,33.33
2019-01-24T15:27:03.221Z,31.57
2019-01-24T15:30:11.157Z,29.52
2019-01-24T15:33:20.662Z,32.35
2019-01-24T15:35:51.755Z,31.70
2019-01-24T15:38:30.440Z,30.72
2019-01-24T15:41:04.766Z,30.48
2019-01-24T15:43:38.571Z,30.80
2019-01-24T15:46:15.068Z,31.85
2019-01-24T15:51:44.391Z,30.80
2019-01-24T15:54:19.146Z,29.92
2019-01-24T15:56:54.629Z,28.80
2019-01-24T16:00:05.084Z,30.30
2019-01-24T16:02:37.106Z,30.20
2019-01-24T16:05:09.936Z,30.97
2019-01-24T16:07:40.011Z,30.45
2019-01-24T16:10:12.327Z,31.48
2019-01-24T16:12:42.819Z,31.25
2019-01-24T16:15:26.606Z,32.23
2019-01-24T16:18:01.492Z,29.77
2019-01-24T16:20:32.874Z,30.27
2019-01-24T16:23:40.605Z,31.10
2019-01-24T16:32:24.446Z,31.00
2019-01-24T16:35:06.901Z,29.23
2019-01-24T16:38:09.450Z,30.85
2019-01-24T16:40:51.523Z,31.82
2019-01-24T16:49:14.395Z,30.43
2019-01-24T16:54:59.699Z,29.85
2019-01-24T17:00:25.532Z,29.12
2019-01-24T17:03:07.495Z,27.87
2019-01-24T17:05:40.631Z,29.30
2019-01-24T17:08:16.745Z,29.27
2019-01-24T17:10:47.307Z,30.60
2019-01-24T17:13:20.800Z,29.65
2019-01-24T17:16:10.908Z,29.80
2019-01-24T17:18:47.260Z,31.00
2019-01-24T17:21:28.306Z,29.80
2019-01-24T17:24:07.373Z,29.57
2019-01-24T17:30:35.262Z,29.07
2019-01-24T17:33:17.861Z,28.73
2019-01-24T17:36:03.268Z,28.62
2019-01-24T17:38:45.191Z,29.82
2019-01-24T17:41:28.055Z,27.70
2019-01-24T17:44:13.131Z,26.30
2019-01-24T17:46:57.537Z,27.00
2019-01-24T17:52:47.626Z,28.38
2019-01-24T17:55:31.625Z,27.42
2019-01-24T17:58:13.565Z,26.97
2019-01-24T18:00:58.838Z,28.23
2019-01-24T18:03:42.657Z,27.40
2019-01-24T18:09:10.213Z,28.70
2019-01-24T18:14:41.121Z,31.33
2019-01-24T18:17:23.030Z,29.05
2019-01-24T18:29:45.838Z,24.95
2019-01-24T18:32:45.476Z,26.73
2019-01-24T18:47:05.846Z,25.43
2019-01-24T18:49:40.796Z,25.77
2019-01-24T18:52:14.333Z,25.57
2019-01-24T18:54:50.763Z,25.48
2019-01-24T18:57:33.012Z,27.42
2019-01-24T19:00:16.843Z,26.68
2019-01-24T19:02:56.175Z,24.92
2019-01-24T19:08:45.923Z,25.37
2019-01-24T19:11:25.445Z,28.60
2019-01-24T19:14:07.496Z,27.05
2019-01-24T19:16:51.047Z,25.25
2019-01-24T19:23:24.416Z,31.15
2019-01-24T19:26:05.657Z,34.90
2019-01-24T19:28:48.515Z,34.23
2019-01-24T19:31:35.872Z,25.88
2019-01-24T19:34:17.931Z,28.67
2019-01-24T19:37:03.227Z,29.95
2019-01-24T19:39:46.339Z,28.25
2019-01-24T19:42:28.706Z,25.80
2019-01-24T19:45:10.842Z,25.68
2019-01-24T19:47:53.362Z,26.50
2019-01-24T19:50:44.215Z,27.87
2019-01-24T19:53:22.268Z,24.82
2019-01-24T19:55:59.645Z,25.02
2019-01-24T20:02:12.890Z,29.70
2019-01-24T20:04:55.133Z,32.85
2019-01-24T20:08:08.141Z,31.30
2019-01-24T20:10:40.717Z,29.98
2019-01-24T20:13:17.074Z,28.98
2019-01-24T20:15:52.358Z,26.75
2019-01-24T20:18:31.578Z,29.18
2019-01-24T20:21:08.539Z,33.63
2019-01-24T20:23:42.710Z,28.15
2019-01-24T20:26:19.615Z,30.60
2019-01-24T20:28:51.799Z,27.65
2019-01-24T20:31:29.247Z,25.37
2019-01-24T20:34:18.722Z,28.67
2019-01-24T20:39:55.259Z,25.75
2019-01-24T20:42:29.484Z,24.43
2019-01-24T20:45:09.172Z,28.25
2019-01-24T20:47:40.569Z,25.85
2019-01-24T20:50:19.546Z,24.43
2019-01-24T20:53:10.064Z,23.98
2019-01-24T20:55:46.839Z,26.68
2019-01-24T20:59:02.059Z,21.93
2019-01-24T21:01:40.650Z,24.67
2019-01-24T21:04:13.005Z,24.32
2019-01-24T21:06:45.940Z,34.05
2019-01-24T21:21:46.160Z,23.10
2019-01-24T21:24:56.942Z,25.90
2019-01-24T21:30:38.904Z,24.70
2019-01-24T21:36:33.096Z,28.52
2019-01-24T21:39:24.433Z,27.07
2019-01-24T21:41:54.755Z,31.48
2019-01-24T21:54:43.265Z,26.05
2019-01-24T21:57:34.338Z,26.05
2019-01-24T22:00:08.412Z,25.32
2019-01-24T22:02:49.871Z,24.35
2019-01-24T22:05:58.986Z,25.32
2019-01-24T22:11:39.967Z,27.77
2019-01-24T22:14:21.690Z,28.67
2019-01-24T22:17:04.216Z,28.95
2019-01-24T22:19:46.119Z,26.52
2019-01-24T22:22:28.163Z,24.77
2019-01-24T22:31:21.577Z,31.12
2019-01-24T22:34:03.456Z,25.40
2019-01-24T22:36:45.001Z,26.05
2019-01-24T22:39:27.730Z,27.52
2019-01-24T22:42:08.640Z,26.60
2019-01-24T22:44:50.833Z,26.12
2019-01-24T22:47:32.178Z,25.27
2019-01-24T22:56:05.257Z,24.57
2019-01-24T22:58:56.239Z,25.52
2019-01-24T23:01:37.937Z,24.65
2019-01-24T23:07:20.049Z,29.30
2019-01-24T23:16:06.080Z,25.10
2019-01-24T23:18:48.000Z,26.27
2019-01-24T23:24:32.903Z,25.15
2019-01-24T23:27:14.604Z,25.00
2019-01-24T23:29:56.596Z,24.55
2019-01-24T23:35:42.890Z,24.52
2019-01-24T23:38:24.147Z,30.68
2019-01-24T23:41:05.545Z,26.90
2019-01-24T23:44:15.450Z,26.00
2019-01-24T23:47:15.400Z,26.00
2019-01-24T23:50:16.068Z,25.27
2019-01-24T23:52:57.201Z,24.32
2019-01-24T23:55:40.180Z,28.27
2019-01-24T23:58:22.093Z,35.15
